createdAt,value
2018-02-13T00:01:44.534Z,9.57
2018-02-13T00:04:11.697Z,9.30
2018-02-13T00:06:38.851Z,10.40
2018-02-13T00:09:05.297Z,10.05
2018-02-13T00:11:31.713Z,9.52
2018-02-13T00:13:58.877Z,10.55
2018-02-13T00:16:25.311Z,11.60
2018-02-13T00:18:51.710Z,11.35
2018-02-13T00:21:18.097Z,11.43
2018-02-13T00:23:44.477Z,12.15
2018-02-13T00:26:10.898Z,12.90
2018-02-13T00:28:37.279Z,12.10
2018-02-13T00:31:03.691Z,12.50
2018-02-13T00:33:30.821Z,13.87
2018-02-13T00:35:57.228Z,14.00
2018-02-13T00:38:23.631Z,13.48
2018-02-13T00:40:50.021Z,13.80
2018-02-13T00:43:16.426Z,13.30
2018-02-13T00:45:42.795Z,13.55
2018-02-13T00:48:09.254Z,14.02
2018-02-13T00:50:36.374Z,13.80
2018-02-13T00:53:02.825Z,14.47
2018-02-13T00:55:29.209Z,14.52
2018-02-13T00:57:55.612Z,13.77
2018-02-13T01:00:22.750Z,14.90
2018-02-13T01:02:49.861Z,13.60
2018-02-13T01:05:16.254Z,14.65
2018-02-13T01:07:42.621Z,14.87
2018-02-13T01:10:09.093Z,15.40
2018-02-13T01:12:35.492Z,14.63
2018-02-13T01:15:01.921Z,14.50
2018-02-13T01:17:28.297Z,15.00
2018-02-13T01:19:54.693Z,14.82
2018-02-13T01:22:21.074Z,14.60
2018-02-13T01:24:48.217Z,14.43
2018-02-13T01:27:14.601Z,14.60
2018-02-13T01:29:40.992Z,15.05
2018-02-13T01:32:08.110Z,15.43
2018-02-13T01:34:34.540Z,15.43
2018-02-13T01:37:00.910Z,16.75
2018-02-13T01:39:27.341Z,15.70
2018-02-13T01:41:54.457Z,16.27
2018-02-13T01:44:20.855Z,16.00
2018-02-13T01:46:47.227Z,14.75
2018-02-13T01:49:14.366Z,15.35
2018-02-13T01:51:40.773Z,16.30
2018-02-13T01:54:07.144Z,16.25
2018-02-13T01:56:33.567Z,16.20
2018-02-13T01:58:59.943Z,16.85
2018-02-13T02:01:27.102Z,15.43
2018-02-13T02:03:54.236Z,15.10
2018-02-13T02:06:20.649Z,16.05
2018-02-13T02:08:47.022Z,15.23
2018-02-13T02:11:14.165Z,14.70
2018-02-13T02:13:41.297Z,14.07
2018-02-13T02:16:07.711Z,13.82
2018-02-13T02:18:34.121Z,14.30
2018-02-13T02:21:00.505Z,14.00
2018-02-13T02:23:26.917Z,13.77
2018-02-13T02:25:53.296Z,13.00
2018-02-13T02:28:20.460Z,12.70
2018-02-13T02:30:46.833Z,13.27
2018-02-13T02:33:13.245Z,13.80
2018-02-13T02:35:39.631Z,13.18
2018-02-13T02:38:06.047Z,13.90
2018-02-13T02:40:32.433Z,13.57
2018-02-13T02:43:05.035Z,12.63
2018-02-13T02:45:31.442Z,13.98
2018-02-13T02:47:57.811Z,13.35
2018-02-13T02:50:24.212Z,12.82
2018-02-13T02:52:50.590Z,13.65
2018-02-13T02:55:17.007Z,14.52
2018-02-13T02:57:43.410Z,14.23
2018-02-13T03:00:10.557Z,13.07
2018-02-13T03:02:37.725Z,13.27
2018-02-13T03:05:04.160Z,13.93
2018-02-13T03:07:30.614Z,14.77
2018-02-13T03:09:57.040Z,14.90
2018-02-13T03:12:23.466Z,15.07
2018-02-13T03:14:49.844Z,15.48
2018-02-13T03:17:16.249Z,15.98
2018-02-13T03:19:42.675Z,15.30
2018-02-13T03:22:09.072Z,15.57
2018-02-13T03:24:36.264Z,15.15
2018-02-13T03:27:02.653Z,15.27
2018-02-13T03:29:29.803Z,14.75
2018-02-13T03:31:59.752Z,14.30
2018-02-13T03:34:38.039Z,14.10
2018-02-13T03:37:19.845Z,14.43
2018-02-13T03:40:00.603Z,13.93
2018-02-13T03:42:27.670Z,14.77
2018-02-13T03:44:54.113Z,13.50
2018-02-13T03:47:20.507Z,15.00
2018-02-13T03:49:46.922Z,14.70
2018-02-13T03:52:13.306Z,14.40
2018-02-13T03:54:47.925Z,14.40
2018-02-13T03:57:14.718Z,13.75
2018-02-13T03:59:41.122Z,15.23
2018-02-13T04:02:07.509Z,15.57
2018-02-13T04:04:33.936Z,15.60
2018-02-13T04:07:00.324Z,15.60
2018-02-13T04:09:26.747Z,14.97
2018-02-13T04:11:53.138Z,15.10
2018-02-13T04:14:19.566Z,13.95
2018-02-13T04:16:46.687Z,15.00
2018-02-13T04:19:13.832Z,15.48
2018-02-13T04:21:40.296Z,16.37
2018-02-13T04:24:06.717Z,16.27
2018-02-13T04:26:33.131Z,16.80
2018-02-13T04:28:59.543Z,18.48
2018-02-13T04:31:25.929Z,17.50
2018-02-13T04:33:52.346Z,18.17
2018-02-13T04:36:18.794Z,17.70
2018-02-13T04:38:45.198Z,18.30
2018-02-13T04:41:11.619Z,19.20
2018-02-13T04:43:38.900Z,20.20
2018-02-13T04:46:05.286Z,19.87
2018-02-13T04:48:31.695Z,20.27
2018-02-13T04:50:58.111Z,18.77
2018-02-13T04:53:24.498Z,20.48
2018-02-13T04:55:51.638Z,20.30
2018-02-13T04:58:18.025Z,20.53
2018-02-13T05:00:44.442Z,20.83
2018-02-13T05:03:10.815Z,20.88
2018-02-13T05:05:37.245Z,20.60
2018-02-13T05:08:03.626Z,19.65
2018-02-13T05:10:30.802Z,22.70
2018-02-13T05:12:57.221Z,40.50
2018-02-13T05:15:23.616Z,33.20
2018-02-13T05:17:50.014Z,24.12
2018-02-13T05:20:16.417Z,22.65
2018-02-13T05:22:43.573Z,19.85
2018-02-13T05:25:09.982Z,19.17
2018-02-13T05:27:36.377Z,19.62
2018-02-13T05:30:02.819Z,20.08
2018-02-13T05:32:29.314Z,21.52
2018-02-13T05:34:55.722Z,20.60
2018-02-13T05:37:22.117Z,20.08
2018-02-13T05:39:49.257Z,20.25
2018-02-13T05:42:16.367Z,21.80
2018-02-13T05:44:42.765Z,20.90
2018-02-13T05:47:09.168Z,20.87
2018-02-13T05:49:35.574Z,22.08
2018-02-13T05:52:01.967Z,23.67
2018-02-13T05:54:28.381Z,22.30
2018-02-13T05:56:55.554Z,23.73
2018-02-13T05:59:21.953Z,24.25
2018-02-13T06:01:48.376Z,23.42
2018-02-13T06:04:14.758Z,24.20
2018-02-13T06:06:41.165Z,23.67
2018-02-13T06:09:08.304Z,21.63
2018-02-13T06:11:34.723Z,22.05
2018-02-13T06:14:01.160Z,20.60
2018-02-13T06:16:27.569Z,22.02
2018-02-13T06:18:53.958Z,21.35
2018-02-13T06:21:21.080Z,20.55
2018-02-13T06:23:47.527Z,21.60
2018-02-13T06:26:13.927Z,21.60
2018-02-13T06:28:40.356Z,21.00
2018-02-13T06:31:06.786Z,19.90
2018-02-13T06:33:33.196Z,21.60
2018-02-13T06:35:59.597Z,22.17
2018-02-13T06:38:25.983Z,22.67
2018-02-13T06:40:52.431Z,21.75
2018-02-13T06:43:18.806Z,22.10
2018-02-13T06:45:45.220Z,21.45
2018-02-13T06:48:11.601Z,22.08
2018-02-13T06:50:37.997Z,20.70
2018-02-13T06:53:04.392Z,21.23
2018-02-13T06:55:30.806Z,21.30
2018-02-13T06:57:57.189Z,20.58
2018-02-13T07:02:57.635Z,21.00
2018-02-13T07:05:24.081Z,21.13
2018-02-13T07:07:50.458Z,20.73
2018-02-13T07:10:16.865Z,21.05
2018-02-13T07:12:44.005Z,21.35
2018-02-13T07:15:10.418Z,20.25
2018-02-13T07:17:36.830Z,19.60
2018-02-13T07:20:03.226Z,18.97
2018-02-13T07:22:30.368Z,19.67
2018-02-13T07:24:57.566Z,19.62
2018-02-13T07:27:23.970Z,19.35
2018-02-13T07:29:51.088Z,18.50
2018-02-13T07:32:17.480Z,18.33
2018-02-13T07:34:43.869Z,18.05
2018-02-13T07:37:10.262Z,18.42
2018-02-13T07:39:36.658Z,18.45
2018-02-13T07:42:03.068Z,18.08
2018-02-13T07:44:29.556Z,18.25
2018-02-13T07:46:55.987Z,18.23
2018-02-13T07:49:22.398Z,17.55
2018-02-13T07:51:48.782Z,18.37
2018-02-13T07:54:15.191Z,17.70
2018-02-13T07:56:41.594Z,17.20
2018-02-13T07:59:08.741Z,16.83
2018-02-13T08:01:35.890Z,16.70
2018-02-13T08:04:03.015Z,16.30
2018-02-13T08:06:29.423Z,16.37
2018-02-13T08:08:55.797Z,17.42
2018-02-13T08:11:22.965Z,16.80
2018-02-13T08:13:50.088Z,17.00
2018-02-13T08:16:16.527Z,17.33
2018-02-13T08:18:42.899Z,16.83
2018-02-13T08:21:09.302Z,13.55
2018-02-13T08:23:36.433Z,13.55
2018-02-13T08:26:02.835Z,13.65
2018-02-13T08:28:29.371Z,12.88
2018-02-13T08:30:55.830Z,14.50
2018-02-13T08:33:22.217Z,14.75
2018-02-13T08:35:48.604Z,13.25
2018-02-13T08:38:15.746Z,13.05
2018-02-13T08:40:42.157Z,12.48
2018-02-13T08:43:08.552Z,12.65
2018-02-13T08:45:35.694Z,26.55
2018-02-13T08:48:02.066Z,14.82
2018-02-13T08:50:28.465Z,13.00
2018-02-13T08:52:55.664Z,11.95
2018-02-13T08:55:22.045Z,12.98
2018-02-13T08:57:48.468Z,22.58
2018-02-13T09:00:14.886Z,13.60
2018-02-13T09:02:41.290Z,10.10
2018-02-13T09:05:07.682Z,12.13
2018-02-13T09:07:34.833Z,11.95
2018-02-13T09:10:01.222Z,11.50
2018-02-13T09:12:27.631Z,12.85
2018-02-13T09:14:54.070Z,12.40
2018-02-13T09:17:20.447Z,14.10
2018-02-13T09:19:46.865Z,14.60
2018-02-13T09:22:13.276Z,15.10
2018-02-13T09:24:39.674Z,15.38
2018-02-13T09:27:06.788Z,15.30
2018-02-13T09:29:33.221Z,15.07
2018-02-13T09:31:59.666Z,14.85
2018-02-13T09:34:26.053Z,15.13
2018-02-13T09:36:52.561Z,13.67
2018-02-13T09:39:18.961Z,14.40
2018-02-13T09:41:45.374Z,14.45
2018-02-13T09:44:11.763Z,14.02
2018-02-13T09:46:38.164Z,13.85
2018-02-13T09:49:04.558Z,13.90
2018-02-13T09:51:30.950Z,13.80
2018-02-13T09:53:57.372Z,13.35
2018-02-13T09:56:23.779Z,14.05
2018-02-13T09:58:50.198Z,13.80
2018-02-13T10:01:16.633Z,14.80
2018-02-13T10:03:43.090Z,14.57
2018-02-13T10:06:09.476Z,14.50
2018-02-13T10:08:36.617Z,13.85
2018-02-13T10:11:03.006Z,13.80
2018-02-13T10:13:29.424Z,14.40
2018-02-13T10:15:55.897Z,14.48
2018-02-13T10:18:22.323Z,18.25
2018-02-13T10:20:48.830Z,14.65
2018-02-13T10:23:15.285Z,15.00
2018-02-13T10:25:41.685Z,16.00
2018-02-13T10:28:08.826Z,16.55
2018-02-13T10:30:36.130Z,13.93
2018-02-13T10:33:02.653Z,13.20
2018-02-13T10:35:29.073Z,13.90
2018-02-13T10:37:55.478Z,13.40
2018-02-13T10:40:22.634Z,18.42
2018-02-13T10:42:49.778Z,15.15
2018-02-13T10:45:16.168Z,13.30
2018-02-13T10:47:42.701Z,12.32
2018-02-13T10:50:09.093Z,14.50
2018-02-13T10:52:36.331Z,13.50
2018-02-13T10:55:02.810Z,15.10
2018-02-13T10:57:29.283Z,13.43
2018-02-13T10:59:55.693Z,12.00
2018-02-13T11:02:22.167Z,13.30
2018-02-13T11:04:48.563Z,13.95
2018-02-13T11:07:15.039Z,13.88
2018-02-13T11:09:41.506Z,12.23
2018-02-13T11:12:07.969Z,11.37
2018-02-13T11:14:34.447Z,10.75
2018-02-13T11:17:00.878Z,10.88
2018-02-13T11:19:27.384Z,11.40
2018-02-13T11:21:53.927Z,10.25
2018-02-13T11:24:20.377Z,8.88
2018-02-13T11:26:46.896Z,9.40
2018-02-13T11:29:13.311Z,10.20
2018-02-13T11:31:39.781Z,10.32
2018-02-13T11:34:06.255Z,8.33
2018-02-13T11:36:33.420Z,8.32
2018-02-13T11:38:59.877Z,6.70
2018-02-13T11:41:26.330Z,5.87
2018-02-13T11:43:52.748Z,6.12
2018-02-13T11:46:19.159Z,7.50
2018-02-13T11:48:45.564Z,7.85
2018-02-13T11:51:11.978Z,8.02
2018-02-13T11:53:38.411Z,7.80
2018-02-13T11:56:04.822Z,7.50
2018-02-13T11:58:31.193Z,8.25
2018-02-13T12:00:57.627Z,7.97
2018-02-13T12:03:24.033Z,7.95
2018-02-13T12:05:50.462Z,8.30
2018-02-13T12:08:16.874Z,9.03
2018-02-13T12:10:43.367Z,14.93
2018-02-13T12:13:09.790Z,10.20
2018-02-13T12:15:36.176Z,9.32
2018-02-13T12:18:02.597Z,9.43
2018-02-13T12:20:28.974Z,11.70
2018-02-13T12:22:55.423Z,8.82
2018-02-13T12:25:34.181Z,9.05
2018-02-13T12:28:01.365Z,7.50
2018-02-13T12:30:27.916Z,7.75
2018-02-13T12:32:54.308Z,7.25
2018-02-13T12:35:21.447Z,7.85
2018-02-13T12:37:48.613Z,7.10
2018-02-13T12:40:15.030Z,5.50
2018-02-13T12:42:42.209Z,6.60
2018-02-13T12:45:08.646Z,6.60
2018-02-13T12:47:35.038Z,6.62
2018-02-13T12:50:01.454Z,8.02
2018-02-13T12:52:27.929Z,8.43
2018-02-13T12:54:55.088Z,8.52
2018-02-13T12:57:22.224Z,8.63
2018-02-13T12:59:49.434Z,8.93
2018-02-13T13:02:15.870Z,6.87
2018-02-13T13:04:42.289Z,6.93
2018-02-13T13:07:08.730Z,8.15
2018-02-13T13:09:35.116Z,7.82
2018-02-13T13:12:02.274Z,8.80
2018-02-13T13:14:29.395Z,9.40
2018-02-13T13:16:55.774Z,8.43
2018-02-13T13:19:22.186Z,10.13
2018-02-13T13:21:49.441Z,9.53
2018-02-13T13:24:16.581Z,9.80
2018-02-13T13:26:43.754Z,10.30
2018-02-13T13:29:10.998Z,10.65
2018-02-13T13:31:38.185Z,9.70
2018-02-13T13:34:04.582Z,9.52
2018-02-13T13:36:31.726Z,10.27
2018-02-13T13:38:58.843Z,9.63
2018-02-13T13:41:25.236Z,9.57
2018-02-13T13:43:51.622Z,9.10
2018-02-13T13:46:18.050Z,8.95
2018-02-13T13:48:44.473Z,8.70
2018-02-13T13:51:10.856Z,8.00
2018-02-13T13:53:37.289Z,7.10
2018-02-13T13:56:04.421Z,6.50
2018-02-13T13:58:30.821Z,6.30
2018-02-13T14:00:57.252Z,6.97
2018-02-13T14:03:23.732Z,7.55
2018-02-13T14:05:50.137Z,7.85
2018-02-13T14:08:16.510Z,8.55
2018-02-13T14:10:43.669Z,9.88
2018-02-13T14:13:10.835Z,9.50
2018-02-13T14:22:56.052Z,9.55
2018-02-13T14:25:23.170Z,11.23
2018-02-13T14:27:49.672Z,9.90
2018-02-13T14:30:16.117Z,8.85
2018-02-13T14:32:42.566Z,10.93
2018-02-13T14:35:08.993Z,10.10
2018-02-13T14:37:35.401Z,12.18
2018-02-13T14:40:01.788Z,10.45
2018-02-13T14:42:28.241Z,11.20
2018-02-13T14:44:55.385Z,11.43
2018-02-13T14:47:22.542Z,9.68
2018-02-13T14:49:49.656Z,9.45
2018-02-13T14:52:16.062Z,9.20
2018-02-13T14:54:42.470Z,8.90
2018-02-13T14:57:09.618Z,9.73
2018-02-13T14:59:36.774Z,9.90
2018-02-13T15:02:03.239Z,10.07
2018-02-13T15:04:29.645Z,10.77
2018-02-13T15:06:56.020Z,10.57
2018-02-13T15:09:22.418Z,10.10
2018-02-13T15:11:48.813Z,10.77
2018-02-13T15:14:15.287Z,10.80
2018-02-13T15:30:02.290Z,12.10
2018-02-13T15:32:29.432Z,10.70
2018-02-13T15:34:56.624Z,11.60
2018-02-13T15:37:23.071Z,10.95
2018-02-13T15:39:49.518Z,10.93
2018-02-13T15:42:15.907Z,10.10
2018-02-13T15:44:42.309Z,9.98
2018-02-13T15:47:10.823Z,10.13
2018-02-13T15:49:37.253Z,9.70
2018-02-13T15:52:03.659Z,9.50
2018-02-13T15:54:30.152Z,10.32
2018-02-13T15:56:56.548Z,9.65
2018-02-13T15:59:23.706Z,10.17
2018-02-13T16:01:50.135Z,10.60
2018-02-13T16:04:17.286Z,11.00
2018-02-13T16:06:44.456Z,11.00
2018-02-13T16:09:10.893Z,11.32
2018-02-13T16:11:37.272Z,12.90
2018-02-13T16:14:03.731Z,14.00
2018-02-13T16:16:30.889Z,12.60
2018-02-13T16:18:58.033Z,13.90
2018-02-13T16:21:25.149Z,13.75
2018-02-13T16:23:51.554Z,13.43
2018-02-13T16:26:17.973Z,14.32
2018-02-13T16:28:44.366Z,13.90
2018-02-13T16:31:10.843Z,14.40
2018-02-13T16:33:37.225Z,13.95
2018-02-13T16:36:03.629Z,14.50
2018-02-13T16:38:30.026Z,15.95
2018-02-13T16:40:57.195Z,16.33
2018-02-13T16:43:23.586Z,16.50
2018-02-13T16:45:50.074Z,17.37
2018-02-13T16:48:17.240Z,14.77
2018-02-13T16:50:43.615Z,14.40
2018-02-13T16:53:17.049Z,15.02
2018-02-13T16:55:43.429Z,17.30
2018-02-13T16:58:09.850Z,16.55
2018-02-13T17:00:36.254Z,15.45
2018-02-13T17:03:02.653Z,16.42
2018-02-13T17:05:29.043Z,16.98
2018-02-13T17:07:55.464Z,18.30
2018-02-13T17:10:21.923Z,18.67
2018-02-13T17:12:48.323Z,19.15
2018-02-13T17:15:14.758Z,17.70
2018-02-13T17:17:41.148Z,16.20
2018-02-13T17:20:07.557Z,15.30
2018-02-13T17:22:33.987Z,17.00
2018-02-13T17:25:00.394Z,15.85
2018-02-13T17:27:26.801Z,15.38
2018-02-13T17:29:53.950Z,16.73
2018-02-13T17:32:21.137Z,15.90
2018-02-13T17:34:47.557Z,16.90
2018-02-13T17:49:25.838Z,12.73
2018-02-13T17:51:52.234Z,11.95
2018-02-13T17:54:18.633Z,11.77
2018-02-13T17:56:45.080Z,12.98
2018-02-13T17:59:11.522Z,13.10
2018-02-13T18:01:37.907Z,16.40
2018-02-13T18:04:05.062Z,16.95
2018-02-13T18:06:32.202Z,16.27
2018-02-13T18:08:58.711Z,17.50
2018-02-13T18:11:25.124Z,16.90
2018-02-13T18:13:51.619Z,17.05
2018-02-13T18:16:18.812Z,17.65
2018-02-13T18:18:45.256Z,16.77
2018-02-13T18:21:11.804Z,25.23
2018-02-13T18:23:38.315Z,38.08
2018-02-13T18:26:04.752Z,17.02
2018-02-13T18:28:31.200Z,17.85
2018-02-13T18:30:59.539Z,16.55
2018-02-13T18:33:27.266Z,16.75
2018-02-13T18:35:53.726Z,16.65
2018-02-13T18:38:20.149Z,15.25
2018-02-13T18:40:46.865Z,15.77
2018-02-13T18:43:14.032Z,16.58
2018-02-13T18:45:40.405Z,15.07
2018-02-13T18:48:07.718Z,15.77
2018-02-13T18:50:34.870Z,16.67
2018-02-13T18:55:27.997Z,16.90
2018-02-13T18:57:54.476Z,16.70
2018-02-13T19:00:21.404Z,18.50
2018-02-13T19:02:47.987Z,16.70
2018-02-13T19:05:14.366Z,18.92
2018-02-13T19:07:41.226Z,17.90
2018-02-13T19:10:07.902Z,31.48
2018-02-13T19:12:35.045Z,21.17
2018-02-13T19:15:01.484Z,22.87
2018-02-13T19:17:27.884Z,18.00
2018-02-13T19:19:54.365Z,19.85
2018-02-13T19:22:21.488Z,20.20
2018-02-13T19:24:49.408Z,17.87
2018-02-13T19:27:16.549Z,18.50
2018-02-13T19:29:43.713Z,17.48
2018-02-13T19:32:10.324Z,17.52
2018-02-13T19:34:36.727Z,21.05
2018-02-13T19:37:03.127Z,21.83
2018-02-13T19:39:29.594Z,21.00
2018-02-13T19:41:57.054Z,21.70
2018-02-13T19:44:23.525Z,20.95
2018-02-13T19:46:50.774Z,17.20
2018-02-13T19:49:17.222Z,18.00
2018-02-13T19:51:44.933Z,18.27
2018-02-13T19:54:11.348Z,17.58
2018-02-13T19:56:37.785Z,20.62
2018-02-13T19:59:04.206Z,21.70
2018-02-13T20:01:30.649Z,20.90
2018-02-13T20:03:57.077Z,22.98
2018-02-13T20:06:23.482Z,21.30
2018-02-13T20:08:49.941Z,20.50
2018-02-13T20:11:16.452Z,21.40
2018-02-13T20:13:42.865Z,18.90
2018-02-13T20:16:09.283Z,20.37
2018-02-13T20:18:35.689Z,22.85
2018-02-13T20:21:02.165Z,24.70
2018-02-13T20:23:28.582Z,25.00
2018-02-13T20:25:55.077Z,26.02
2018-02-13T20:28:22.281Z,22.30
2018-02-13T20:30:48.738Z,21.42
2018-02-13T20:33:15.178Z,22.17
2018-02-13T20:35:41.609Z,21.60
2018-02-13T20:38:08.054Z,22.75
2018-02-13T20:40:34.533Z,25.17
2018-02-13T20:43:01.063Z,26.35
2018-02-13T20:45:27.536Z,22.00
2018-02-13T20:47:53.974Z,21.17
2018-02-13T20:50:20.473Z,19.65
2018-02-13T20:52:46.898Z,18.87
2018-02-13T20:55:13.324Z,19.27
2018-02-13T20:57:40.462Z,18.67
2018-02-13T21:00:06.945Z,21.92
2018-02-13T21:02:33.364Z,18.85
2018-02-13T21:04:59.818Z,24.37
2018-02-13T21:07:26.307Z,24.12
2018-02-13T21:09:53.480Z,25.25
2018-02-13T21:12:20.009Z,25.10
2018-02-13T21:14:46.459Z,23.98
2018-02-13T21:17:12.923Z,24.45
2018-02-13T21:19:39.386Z,25.02
2018-02-13T21:22:05.782Z,24.20
2018-02-13T21:24:32.169Z,26.08
2018-02-13T21:26:59.325Z,23.42
2018-02-13T21:29:26.479Z,22.42
2018-02-13T21:31:53.617Z,23.83
2018-02-13T21:34:20.766Z,21.70
2018-02-13T21:36:47.921Z,23.08
2018-02-13T21:39:15.123Z,22.95
2018-02-13T21:41:41.569Z,24.10
2018-02-13T21:44:07.994Z,24.27
2018-02-13T21:46:34.405Z,24.13
2018-02-13T21:49:00.800Z,23.75
2018-02-13T21:51:27.286Z,24.87
2018-02-13T21:53:53.707Z,26.70
2018-02-13T21:56:20.137Z,26.65
2018-02-13T21:58:46.554Z,27.60
2018-02-13T22:01:13.709Z,26.40
2018-02-13T22:03:40.831Z,25.52
2018-02-13T22:06:07.254Z,26.20
2018-02-13T22:08:33.675Z,25.10
2018-02-13T22:11:00.151Z,23.38
2018-02-13T22:13:26.537Z,23.92
2018-02-13T22:15:53.016Z,22.60
2018-02-13T22:18:19.429Z,22.97
2018-02-13T22:20:45.817Z,23.02
2018-02-13T22:23:12.244Z,23.35
2018-02-13T22:25:39.379Z,23.55
2018-02-13T22:28:06.530Z,21.87
2018-02-13T22:30:33.668Z,23.92
2018-02-13T22:33:00.070Z,22.75
2018-02-13T22:35:26.473Z,18.85
2018-02-13T22:37:52.962Z,17.67
2018-02-13T22:40:19.386Z,18.42
2018-02-13T22:42:45.822Z,17.80
2018-02-13T22:45:12.198Z,17.20
2018-02-13T22:47:39.336Z,18.55
2018-02-13T22:50:05.709Z,17.25
2018-02-13T22:52:32.122Z,16.83
2018-02-13T22:54:58.534Z,18.50
2018-02-13T22:57:24.941Z,15.90
2018-02-13T22:59:51.363Z,17.17
2018-02-13T23:02:17.746Z,15.93
2018-02-13T23:04:44.891Z,18.02
2018-02-13T23:07:12.012Z,16.40
2018-02-13T23:09:38.441Z,19.42
2018-02-13T23:12:04.848Z,16.48
2018-02-13T23:14:31.315Z,18.35
2018-02-13T23:16:57.694Z,18.35
2018-02-13T23:19:24.824Z,18.83
2018-02-13T23:21:51.229Z,19.60
2018-02-13T23:24:17.617Z,17.95
2018-02-13T23:26:44.767Z,19.20
2018-02-13T23:29:11.883Z,17.15
2018-02-13T23:31:38.287Z,18.67
2018-02-13T23:34:04.662Z,18.85
2018-02-13T23:36:31.063Z,18.10
2018-02-13T23:38:57.452Z,16.52
2018-02-13T23:41:24.648Z,18.70
2018-02-13T23:43:51.022Z,18.30
2018-02-13T23:46:18.189Z,17.75
2018-02-13T23:48:45.326Z,19.70
2018-02-13T23:51:12.454Z,18.48
2018-02-13T23:53:38.897Z,18.50
2018-02-13T23:56:05.274Z,17.52
2018-02-13T23:58:31.664Z,16.52
